sensor_id;sensor_type;location;lat;lon;timestamp;pressure;altitude;pressure_sealevel;temperature
60966;BMP180;46834;51.100;6.886;2022-12-20T00:01:00;101152.00;;;11.90
60966;BMP180;46834;51.100;6.886;2022-12-20T00:03:25;101155.00;;;11.90
60966;BMP180;46834;51.100;6.886;2022-12-20T00:05:51;101141.00;;;11.90
60966;BMP180;46834;51.100;6.886;2022-12-20T00:08:17;101141.00;;;11.90
60966;BMP180;46834;51.100;6.886;2022-12-20T00:10:44;101138.00;;;11.90
60966;BMP180;46834;51.100;6.886;2022-12-20T00:13:11;101134.00;;;11.90
60966;BMP180;46834;51.100;6.886;2022-12-20T00:15:37;101132.00;;;12.00
60966;BMP180;46834;51.100;6.886;2022-12-20T00:18:03;101132.00;;;12.00
60966;BMP180;46834;51.100;6.886;2022-12-20T00:20:29;101122.00;;;12.00
60966;BMP180;46834;51.100;6.886;2022-12-20T00:22:55;101116.00;;;12.00
60966;BMP180;46834;51.100;6.886;2022-12-20T00:25:21;101116.00;;;12.00
60966;BMP180;46834;51.100;6.886;2022-12-20T00:27:48;101110.00;;;12.10
60966;BMP180;46834;51.100;6.886;2022-12-20T00:30:15;101109.00;;;12.10
60966;BMP180;46834;51.100;6.886;2022-12-20T00:32:42;101111.00;;;12.10
60966;BMP180;46834;51.100;6.886;2022-12-20T00:35:08;101104.00;;;12.10
60966;BMP180;46834;51.100;6.886;2022-12-20T00:37:34;101094.00;;;12.10
60966;BMP180;46834;51.100;6.886;2022-12-20T00:40:00;101096.00;;;12.10
60966;BMP180;46834;51.100;6.886;2022-12-20T00:42:25;101096.00;;;12.10
60966;BMP180;46834;51.100;6.886;2022-12-20T00:44:51;101107.00;;;12.20
60966;BMP180;46834;51.100;6.886;2022-12-20T00:47:16;101121.00;;;12.20
60966;BMP180;46834;51.100;6.886;2022-12-20T00:49:42;101123.00;;;12.20
60966;BMP180;46834;51.100;6.886;2022-12-20T00:52:08;101131.00;;;12.20
60966;BMP180;46834;51.100;6.886;2022-12-20T00:54:33;101138.00;;;12.30
60966;BMP180;46834;51.100;6.886;2022-12-20T00:56:59;101137.00;;;12.30
60966;BMP180;46834;51.100;6.886;2022-12-20T00:59:25;101145.00;;;12.30
60966;BMP180;46834;51.100;6.886;2022-12-20T01:01:51;101145.00;;;12.30
60966;BMP180;46834;51.100;6.886;2022-12-20T01:04:16;101146.00;;;12.30
60966;BMP180;46834;51.100;6.886;2022-12-20T01:06:42;101138.00;;;12.30
60966;BMP180;46834;51.100;6.886;2022-12-20T01:09:10;101143.00;;;12.30
60966;BMP180;46834;51.100;6.886;2022-12-20T01:11:37;101143.00;;;12.40
60966;BMP180;46834;51.100;6.886;2022-12-20T01:14:15;101141.00;;;12.30
60966;BMP180;46834;51.100;6.886;2022-12-20T01:16:44;101132.00;;;12.40
60966;BMP180;46834;51.100;6.886;2022-12-20T01:19:12;101125.00;;;12.40
60966;BMP180;46834;51.100;6.886;2022-12-20T01:21:39;101130.00;;;12.40
60966;BMP180;46834;51.100;6.886;2022-12-20T01:24:14;101125.00;;;12.40
60966;BMP180;46834;51.100;6.886;2022-12-20T01:26:40;101124.00;;;12.40
60966;BMP180;46834;51.100;6.886;2022-12-20T01:29:06;101122.00;;;12.30
60966;BMP180;46834;51.100;6.886;2022-12-20T01:31:32;101107.00;;;12.30
60966;BMP180;46834;51.100;6.886;2022-12-20T01:33:58;101111.00;;;12.30
60966;BMP180;46834;51.100;6.886;2022-12-20T01:36:28;101108.00;;;12.30
60966;BMP180;46834;51.100;6.886;2022-12-20T01:38:57;101110.00;;;12.30
60966;BMP180;46834;51.100;6.886;2022-12-20T01:41:23;101109.00;;;12.30
60966;BMP180;46834;51.100;6.886;2022-12-20T01:46:52;101106.00;;;12.20
60966;BMP180;46834;51.100;6.886;2022-12-20T01:49:33;101102.00;;;12.20
60966;BMP180;46834;51.100;6.886;2022-12-20T01:52:14;101092.00;;;12.20
60966;BMP180;46834;51.100;6.886;2022-12-20T01:54:51;101110.00;;;12.20
60966;BMP180;46834;51.100;6.886;2022-12-20T01:57:28;101108.00;;;12.20
60966;BMP180;46834;51.100;6.886;2022-12-20T01:59:57;101096.00;;;12.20
60966;BMP180;46834;51.100;6.886;2022-12-20T02:02:23;101104.00;;;12.20
60966;BMP180;46834;51.100;6.886;2022-12-20T02:04:49;101110.00;;;12.20
60966;BMP180;46834;51.100;6.886;2022-12-20T02:07:23;101094.00;;;12.20
60966;BMP180;46834;51.100;6.886;2022-12-20T02:09:51;101087.00;;;12.20
60966;BMP180;46834;51.100;6.886;2022-12-20T02:12:29;101085.00;;;12.20
60966;BMP180;46834;51.100;6.886;2022-12-20T02:15:07;101080.00;;;12.20
60966;BMP180;46834;51.100;6.886;2022-12-20T02:20:47;101084.00;;;12.20
60966;BMP180;46834;51.100;6.886;2022-12-20T02:32:51;101083.00;;;12.20
60966;BMP180;46834;51.100;6.886;2022-12-20T02:35:24;101074.00;;;12.20
60966;BMP180;46834;51.100;6.886;2022-12-20T02:37:56;101079.00;;;12.30
60966;BMP180;46834;51.100;6.886;2022-12-20T02:40:39;101062.00;;;12.20
60966;BMP180;46834;51.100;6.886;2022-12-20T02:43:09;101067.00;;;12.20
60966;BMP180;46834;51.100;6.886;2022-12-20T02:45:57;101067.00;;;12.20
60966;BMP180;46834;51.100;6.886;2022-12-20T02:48:26;101060.00;;;12.20
60966;BMP180;46834;51.100;6.886;2022-12-20T02:50:57;101073.00;;;12.20
60966;BMP180;46834;51.100;6.886;2022-12-20T02:53:23;101071.00;;;12.20
60966;BMP180;46834;51.100;6.886;2022-12-20T02:56:00;101074.00;;;12.10
60966;BMP180;46834;51.100;6.886;2022-12-20T02:58:50;101074.00;;;12.10
60966;BMP180;46834;51.100;6.886;2022-12-20T03:01:35;101070.00;;;12.00
60966;BMP180;46834;51.100;6.886;2022-12-20T03:04:03;101076.00;;;12.10
60966;BMP180;46834;51.100;6.886;2022-12-20T03:06:30;101068.00;;;12.00
60966;BMP180;46834;51.100;6.886;2022-12-20T03:08:56;101071.00;;;12.00
60966;BMP180;46834;51.100;6.886;2022-12-20T03:11:22;101077.00;;;12.00
60966;BMP180;46834;51.100;6.886;2022-12-20T03:13:48;101073.00;;;12.00
60966;BMP180;46834;51.100;6.886;2022-12-20T03:16:13;101062.00;;;11.90
60966;BMP180;46834;51.100;6.886;2022-12-20T03:18:39;101055.00;;;11.90
60966;BMP180;46834;51.100;6.886;2022-12-20T03:21:05;101062.00;;;11.90
60966;BMP180;46834;51.100;6.886;2022-12-20T03:23:31;101054.00;;;11.90
60966;BMP180;46834;51.100;6.886;2022-12-20T03:25:57;101072.00;;;11.90
60966;BMP180;46834;51.100;6.886;2022-12-20T03:28:23;101066.00;;;11.90
60966;BMP180;46834;51.100;6.886;2022-12-20T03:30:48;101071.00;;;11.90
60966;BMP180;46834;51.100;6.886;2022-12-20T03:33:14;101072.00;;;11.90
60966;BMP180;46834;51.100;6.886;2022-12-20T03:35:40;101065.00;;;11.80
60966;BMP180;46834;51.100;6.886;2022-12-20T03:38:06;101066.00;;;11.80
60966;BMP180;46834;51.100;6.886;2022-12-20T03:40:32;101059.00;;;11.80
60966;BMP180;46834;51.100;6.886;2022-12-20T03:42:58;101068.00;;;11.80
60966;BMP180;46834;51.100;6.886;2022-12-20T03:45:23;101071.00;;;11.80
60966;BMP180;46834;51.100;6.886;2022-12-20T03:47:49;101072.00;;;11.80
60966;BMP180;46834;51.100;6.886;2022-12-20T03:50:15;101074.00;;;11.80
60966;BMP180;46834;51.100;6.886;2022-12-20T03:52:41;101076.00;;;11.70
60966;BMP180;46834;51.100;6.886;2022-12-20T03:55:07;101071.00;;;11.70
60966;BMP180;46834;51.100;6.886;2022-12-20T03:57:34;101072.00;;;11.70
60966;BMP180;46834;51.100;6.886;2022-12-20T04:00:00;101082.00;;;11.70
60966;BMP180;46834;51.100;6.886;2022-12-20T04:02:26;101076.00;;;11.70
60966;BMP180;46834;51.100;6.886;2022-12-20T04:04:52;101073.00;;;11.70
60966;BMP180;46834;51.100;6.886;2022-12-20T04:07:17;101078.00;;;11.70
60966;BMP180;46834;51.100;6.886;2022-12-20T04:09:43;101080.00;;;11.70
60966;BMP180;46834;51.100;6.886;2022-12-20T04:12:09;101089.00;;;11.70
60966;BMP180;46834;51.100;6.886;2022-12-20T04:14:34;101087.00;;;11.70
60966;BMP180;46834;51.100;6.886;2022-12-20T04:17:02;101080.00;;;11.70
60966;BMP180;46834;51.100;6.886;2022-12-20T04:19:27;101080.00;;;11.70
60966;BMP180;46834;51.100;6.886;2022-12-20T04:21:53;101080.00;;;11.70
60966;BMP180;46834;51.100;6.886;2022-12-20T04:24:21;101079.00;;;11.70
60966;BMP180;46834;51.100;6.886;2022-12-20T04:26:46;101051.00;;;11.60
60966;BMP180;46834;51.100;6.886;2022-12-20T04:29:14;101066.00;;;11.60
60966;BMP180;46834;51.100;6.886;2022-12-20T04:31:39;101073.00;;;11.60
60966;BMP180;46834;51.100;6.886;2022-12-20T04:34:05;101064.00;;;11.60
60966;BMP180;46834;51.100;6.886;2022-12-20T04:36:31;101062.00;;;11.60
60966;BMP180;46834;51.100;6.886;2022-12-20T04:38:56;101057.00;;;11.60
60966;BMP180;46834;51.100;6.886;2022-12-20T04:41:22;101057.00;;;11.60
60966;BMP180;46834;51.100;6.886;2022-12-20T04:43:54;101062.00;;;11.50
60966;BMP180;46834;51.100;6.886;2022-12-20T04:46:21;101053.00;;;11.60
60966;BMP180;46834;51.100;6.886;2022-12-20T04:48:47;101056.00;;;11.60
60966;BMP180;46834;51.100;6.886;2022-12-20T04:51:14;101043.00;;;11.60
60966;BMP180;46834;51.100;6.886;2022-12-20T04:53:39;101027.00;;;11.50
60966;BMP180;46834;51.100;6.886;2022-12-20T04:56:20;101029.00;;;11.50
60966;BMP180;46834;51.100;6.886;2022-12-20T04:58:48;101020.00;;;11.50
60966;BMP180;46834;51.100;6.886;2022-12-20T05:01:15;101033.00;;;11.60
60966;BMP180;46834;51.100;6.886;2022-12-20T05:03:41;101024.00;;;11.60
60966;BMP180;46834;51.100;6.886;2022-12-20T05:06:08;101036.00;;;11.60
60966;BMP180;46834;51.100;6.886;2022-12-20T05:08:35;101029.00;;;11.50
60966;BMP180;46834;51.100;6.886;2022-12-20T05:11:01;101023.00;;;11.60
60966;BMP180;46834;51.100;6.886;2022-12-20T05:13:27;101025.00;;;11.60
60966;BMP180;46834;51.100;6.886;2022-12-20T05:15:54;101017.00;;;11.60
60966;BMP180;46834;51.100;6.886;2022-12-20T05:18:20;101004.00;;;11.60
60966;BMP180;46834;51.100;6.886;2022-12-20T05:20:47;100999.00;;;11.60
60966;BMP180;46834;51.100;6.886;2022-12-20T05:23:13;101002.00;;;11.50
60966;BMP180;46834;51.100;6.886;2022-12-20T05:25:58;101004.00;;;11.60
60966;BMP180;46834;51.100;6.886;2022-12-20T05:28:42;100991.00;;;11.50
60966;BMP180;46834;51.100;6.886;2022-12-20T05:31:07;101006.00;;;11.60
60966;BMP180;46834;51.100;6.886;2022-12-20T05:33:33;100994.00;;;11.60
60966;BMP180;46834;51.100;6.886;2022-12-20T05:35:59;100993.00;;;11.60
60966;BMP180;46834;51.100;6.886;2022-12-20T05:38:25;100998.00;;;11.60
60966;BMP180;46834;51.100;6.886;2022-12-20T05:40:51;100988.00;;;11.60
60966;BMP180;46834;51.100;6.886;2022-12-20T05:43:18;100981.00;;;11.60
60966;BMP180;46834;51.100;6.886;2022-12-20T05:45:51;100986.00;;;11.60
60966;BMP180;46834;51.100;6.886;2022-12-20T05:48:19;100984.00;;;11.60
60966;BMP180;46834;51.100;6.886;2022-12-20T05:50:45;100989.00;;;11.60
60966;BMP180;46834;51.100;6.886;2022-12-20T05:53:14;100983.00;;;11.60
60966;BMP180;46834;51.100;6.886;2022-12-20T05:55:59;100988.00;;;11.60
60966;BMP180;46834;51.100;6.886;2022-12-20T05:58:26;100971.00;;;11.60
60966;BMP180;46834;51.100;6.886;2022-12-20T06:00:53;100965.00;;;11.60
60966;BMP180;46834;51.100;6.886;2022-12-20T06:03:18;100971.00;;;11.60
60966;BMP180;46834;51.100;6.886;2022-12-20T06:05:45;100966.00;;;11.60
60966;BMP180;46834;51.100;6.886;2022-12-20T06:08:12;100964.00;;;11.60
60966;BMP180;46834;51.100;6.886;2022-12-20T06:10:39;100968.00;;;11.60
60966;BMP180;46834;51.100;6.886;2022-12-20T06:13:07;100963.00;;;11.60
60966;BMP180;46834;51.100;6.886;2022-12-20T06:15:34;100960.00;;;11.60
60966;BMP180;46834;51.100;6.886;2022-12-20T06:18:00;100968.00;;;11.60
60966;BMP180;46834;51.100;6.886;2022-12-20T06:20:26;100977.00;;;11.60
60966;BMP180;46834;51.100;6.886;2022-12-20T06:22:53;100972.00;;;11.60
60966;BMP180;46834;51.100;6.886;2022-12-20T06:25:19;100976.00;;;11.60
60966;BMP180;46834;51.100;6.886;2022-12-20T06:27:45;100978.00;;;11.60
60966;BMP180;46834;51.100;6.886;2022-12-20T06:30:11;100971.00;;;11.60
60966;BMP180;46834;51.100;6.886;2022-12-20T06:32:37;100974.00;;;11.60
60966;BMP180;46834;51.100;6.886;2022-12-20T06:35:04;100976.00;;;11.60
60966;BMP180;46834;51.100;6.886;2022-12-20T06:37:30;100986.00;;;11.60
60966;BMP180;46834;51.100;6.886;2022-12-20T06:39:56;100966.00;;;11.60
60966;BMP180;46834;51.100;6.886;2022-12-20T06:42:23;100974.00;;;11.70
60966;BMP180;46834;51.100;6.886;2022-12-20T06:44:49;100970.00;;;11.70
60966;BMP180;46834;51.100;6.886;2022-12-20T06:47:15;100958.00;;;11.70
60966;BMP180;46834;51.100;6.886;2022-12-20T06:49:40;100953.00;;;11.70
60966;BMP180;46834;51.100;6.886;2022-12-20T06:52:06;100959.00;;;11.70
60966;BMP180;46834;51.100;6.886;2022-12-20T06:54:31;100954.00;;;11.70
60966;BMP180;46834;51.100;6.886;2022-12-20T06:56:57;100967.00;;;11.70
60966;BMP180;46834;51.100;6.886;2022-12-20T06:59:23;100964.00;;;11.70
60966;BMP180;46834;51.100;6.886;2022-12-20T07:01:48;100947.00;;;11.70
60966;BMP180;46834;51.100;6.886;2022-12-20T07:04:14;100951.00;;;11.70
60966;BMP180;46834;51.100;6.886;2022-12-20T07:06:40;100947.00;;;11.70
60966;BMP180;46834;51.100;6.886;2022-12-20T07:09:05;100943.00;;;11.70
60966;BMP180;46834;51.100;6.886;2022-12-20T07:11:31;100944.00;;;11.70
60966;BMP180;46834;51.100;6.886;2022-12-20T07:13:57;100932.00;;;11.70
60966;BMP180;46834;51.100;6.886;2022-12-20T07:16:23;100938.00;;;11.70
60966;BMP180;46834;51.100;6.886;2022-12-20T07:18:53;100930.00;;;11.70
60966;BMP180;46834;51.100;6.886;2022-12-20T07:21:19;100937.00;;;11.70
60966;BMP180;46834;51.100;6.886;2022-12-20T07:23:46;100939.00;;;11.70
60966;BMP180;46834;51.100;6.886;2022-12-20T07:26:12;100943.00;;;11.70
60966;BMP180;46834;51.100;6.886;2022-12-20T07:28:40;100929.00;;;11.70
60966;BMP180;46834;51.100;6.886;2022-12-20T07:31:05;100937.00;;;11.70
60966;BMP180;46834;51.100;6.886;2022-12-20T07:33:32;100927.00;;;11.70
60966;BMP180;46834;51.100;6.886;2022-12-20T07:36:09;100925.00;;;11.70
60966;BMP180;46834;51.100;6.886;2022-12-20T07:38:36;100918.00;;;11.70
60966;BMP180;46834;51.100;6.886;2022-12-20T07:41:14;100924.00;;;11.70
60966;BMP180;46834;51.100;6.886;2022-12-20T07:43:40;100919.00;;;11.80
60966;BMP180;46834;51.100;6.886;2022-12-20T07:46:07;100929.00;;;11.80
60966;BMP180;46834;51.100;6.886;2022-12-20T07:48:33;100925.00;;;11.80
60966;BMP180;46834;51.100;6.886;2022-12-20T07:51:14;100945.00;;;11.70
60966;BMP180;46834;51.100;6.886;2022-12-20T07:53:51;100941.00;;;11.80
60966;BMP180;46834;51.100;6.886;2022-12-20T07:56:20;100942.00;;;11.80
60966;BMP180;46834;51.100;6.886;2022-12-20T07:58:49;100947.00;;;11.80
60966;BMP180;46834;51.100;6.886;2022-12-20T08:01:19;100939.00;;;11.80
60966;BMP180;46834;51.100;6.886;2022-12-20T08:03:51;100938.00;;;11.80
60966;BMP180;46834;51.100;6.886;2022-12-20T08:06:18;100941.00;;;11.80
60966;BMP180;46834;51.100;6.886;2022-12-20T08:08:50;100927.00;;;11.80
60966;BMP180;46834;51.100;6.886;2022-12-20T08:11:19;100928.00;;;11.80
60966;BMP180;46834;51.100;6.886;2022-12-20T08:13:48;100919.00;;;11.80
60966;BMP180;46834;51.100;6.886;2022-12-20T08:16:14;100922.00;;;11.80
60966;BMP180;46834;51.100;6.886;2022-12-20T08:18:39;100931.00;;;11.80
60966;BMP180;46834;51.100;6.886;2022-12-20T08:21:06;100932.00;;;11.80
60966;BMP180;46834;51.100;6.886;2022-12-20T08:23:33;100934.00;;;11.80
60966;BMP180;46834;51.100;6.886;2022-12-20T08:26:01;100922.00;;;11.80
60966;BMP180;46834;51.100;6.886;2022-12-20T08:28:27;100919.00;;;11.80
60966;BMP180;46834;51.100;6.886;2022-12-20T08:30:59;100906.00;;;11.80
60966;BMP180;46834;51.100;6.886;2022-12-20T08:33:25;100915.00;;;11.80
60966;BMP180;46834;51.100;6.886;2022-12-20T08:36:00;100901.00;;;11.80
60966;BMP180;46834;51.100;6.886;2022-12-20T08:38:28;100910.00;;;11.80
60966;BMP180;46834;51.100;6.886;2022-12-20T08:41:00;100907.00;;;11.90
60966;BMP180;46834;51.100;6.886;2022-12-20T08:43:26;100921.00;;;11.90
60966;BMP180;46834;51.100;6.886;2022-12-20T08:45:55;100916.00;;;11.90
60966;BMP180;46834;51.100;6.886;2022-12-20T08:48:21;100919.00;;;11.90
60966;BMP180;46834;51.100;6.886;2022-12-20T08:50:55;100910.00;;;11.90
60966;BMP180;46834;51.100;6.886;2022-12-20T08:53:21;100903.00;;;11.90
60966;BMP180;46834;51.100;6.886;2022-12-20T08:55:47;100910.00;;;11.90
60966;BMP180;46834;51.100;6.886;2022-12-20T08:58:13;100919.00;;;12.00
60966;BMP180;46834;51.100;6.886;2022-12-20T09:00:40;100913.00;;;12.00
60966;BMP180;46834;51.100;6.886;2022-12-20T09:03:06;100909.00;;;12.00
60966;BMP180;46834;51.100;6.886;2022-12-20T09:05:33;100910.00;;;12.00
60966;BMP180;46834;51.100;6.886;2022-12-20T09:07:58;100910.00;;;12.00
60966;BMP180;46834;51.100;6.886;2022-12-20T09:10:24;100912.00;;;12.00
60966;BMP180;46834;51.100;6.886;2022-12-20T09:12:50;100915.00;;;12.00
60966;BMP180;46834;51.100;6.886;2022-12-20T09:15:15;100907.00;;;12.00
60966;BMP180;46834;51.100;6.886;2022-12-20T09:17:41;100914.00;;;12.00
60966;BMP180;46834;51.100;6.886;2022-12-20T09:20:08;100909.00;;;12.10
60966;BMP180;46834;51.100;6.886;2022-12-20T09:22:33;100915.00;;;12.10
60966;BMP180;46834;51.100;6.886;2022-12-20T09:24:59;100916.00;;;12.10
60966;BMP180;46834;51.100;6.886;2022-12-20T09:27:24;100908.00;;;12.10
60966;BMP180;46834;51.100;6.886;2022-12-20T09:29:50;100911.00;;;12.10
60966;BMP180;46834;51.100;6.886;2022-12-20T09:32:16;100915.00;;;12.10
60966;BMP180;46834;51.100;6.886;2022-12-20T09:34:41;100924.00;;;12.10
60966;BMP180;46834;51.100;6.886;2022-12-20T09:37:07;100920.00;;;12.10
60966;BMP180;46834;51.100;6.886;2022-12-20T09:39:33;100914.00;;;12.10
60966;BMP180;46834;51.100;6.886;2022-12-20T09:41:59;100918.00;;;12.10
60966;BMP180;46834;51.100;6.886;2022-12-20T09:44:33;100912.00;;;12.10
60966;BMP180;46834;51.100;6.886;2022-12-20T09:47:13;100905.00;;;12.10
60966;BMP180;46834;51.100;6.886;2022-12-20T09:49:43;100905.00;;;12.10
60966;BMP180;46834;51.100;6.886;2022-12-20T09:52:46;100906.00;;;12.10
60966;BMP180;46834;51.100;6.886;2022-12-20T10:00:49;100900.00;;;12.10
60966;BMP180;46834;51.100;6.886;2022-12-20T10:03:28;100909.00;;;12.10
60966;BMP180;46834;51.100;6.886;2022-12-20T10:06:34;100899.00;;;12.10
60966;BMP180;46834;51.100;6.886;2022-12-20T10:15:36;100885.00;;;12.20
60966;BMP180;46834;51.100;6.886;2022-12-20T10:18:20;100886.00;;;12.20
60966;BMP180;46834;51.100;6.886;2022-12-20T10:24:01;100887.00;;;12.30
60966;BMP180;46834;51.100;6.886;2022-12-20T10:26:28;100872.00;;;12.30
60966;BMP180;46834;51.100;6.886;2022-12-20T10:28:54;100875.00;;;12.30
60966;BMP180;46834;51.100;6.886;2022-12-20T10:31:20;100876.00;;;12.40
60966;BMP180;46834;51.100;6.886;2022-12-20T10:33:46;100862.00;;;12.40
60966;BMP180;46834;51.100;6.886;2022-12-20T10:36:31;100862.00;;;12.30
60966;BMP180;46834;51.100;6.886;2022-12-20T10:39:04;100856.00;;;12.40
60966;BMP180;46834;51.100;6.886;2022-12-20T10:44:30;100847.00;;;12.40
60966;BMP180;46834;51.100;6.886;2022-12-20T10:46:59;100844.00;;;12.40
60966;BMP180;46834;51.100;6.886;2022-12-20T10:49:38;100836.00;;;12.40
60966;BMP180;46834;51.100;6.886;2022-12-20T10:54:44;100815.00;;;12.40
60966;BMP180;46834;51.100;6.886;2022-12-20T10:59:48;100825.00;;;12.50
60966;BMP180;46834;51.100;6.886;2022-12-20T11:02:30;100812.00;;;12.50
60966;BMP180;46834;51.100;6.886;2022-12-20T11:11:18;100816.00;;;12.60
60966;BMP180;46834;51.100;6.886;2022-12-20T11:13:45;100812.00;;;12.60
60966;BMP180;46834;51.100;6.886;2022-12-20T11:16:34;100797.00;;;12.60
60966;BMP180;46834;51.100;6.886;2022-12-20T11:22:26;100786.00;;;12.70
60966;BMP180;46834;51.100;6.886;2022-12-20T11:27:52;100805.00;;;12.70
60966;BMP180;46834;51.100;6.886;2022-12-20T11:30:42;100805.00;;;12.80
60966;BMP180;46834;51.100;6.886;2022-12-20T11:36:39;100799.00;;;12.80
60966;BMP180;46834;51.100;6.886;2022-12-20T11:47:55;100783.00;;;12.80
60966;BMP180;46834;51.100;6.886;2022-12-20T11:50:50;100771.00;;;12.80
60966;BMP180;46834;51.100;6.886;2022-12-20T11:53:41;100768.00;;;12.80
60966;BMP180;46834;51.100;6.886;2022-12-20T11:59:25;100760.00;;;12.90
60966;BMP180;46834;51.100;6.886;2022-12-20T12:02:27;100770.00;;;12.90
60966;BMP180;46834;51.100;6.886;2022-12-20T12:05:02;100771.00;;;12.90
60966;BMP180;46834;51.100;6.886;2022-12-20T12:07:33;100765.00;;;12.90
60966;BMP180;46834;51.100;6.886;2022-12-20T12:10:21;100765.00;;;12.90
60966;BMP180;46834;51.100;6.886;2022-12-20T12:12:59;100764.00;;;13.00
60966;BMP180;46834;51.100;6.886;2022-12-20T12:15:37;100761.00;;;13.00
60966;BMP180;46834;51.100;6.886;2022-12-20T12:18:19;100779.00;;;13.00
60966;BMP180;46834;51.100;6.886;2022-12-20T12:26:36;100777.00;;;13.00
60966;BMP180;46834;51.100;6.886;2022-12-20T12:29:16;100782.00;;;13.10
60966;BMP180;46834;51.100;6.886;2022-12-20T12:32:16;100775.00;;;13.10
60966;BMP180;46834;51.100;6.886;2022-12-20T12:35:58;100784.00;;;13.10
60966;BMP180;46834;51.100;6.886;2022-12-20T12:46:54;100766.00;;;13.10
60966;BMP180;46834;51.100;6.886;2022-12-20T12:49:24;100776.00;;;13.20
60966;BMP180;46834;51.100;6.886;2022-12-20T12:52:02;100777.00;;;13.20
60966;BMP180;46834;51.100;6.886;2022-12-20T12:54:39;100770.00;;;13.20
60966;BMP180;46834;51.100;6.886;2022-12-20T12:57:14;100768.00;;;13.20
60966;BMP180;46834;51.100;6.886;2022-12-20T12:59:48;100763.00;;;13.30
60966;BMP180;46834;51.100;6.886;2022-12-20T13:17:56;100742.00;;;13.30
60966;BMP180;46834;51.100;6.886;2022-12-20T13:20:26;100736.00;;;13.30
60966;BMP180;46834;51.100;6.886;2022-12-20T13:25:44;100735.00;;;13.20
60966;BMP180;46834;51.100;6.886;2022-12-20T13:31:29;100724.00;;;13.20
60966;BMP180;46834;51.100;6.886;2022-12-20T13:33:53;100710.00;;;13.20
60966;BMP180;46834;51.100;6.886;2022-12-20T13:36:31;100726.00;;;13.10
60966;BMP180;46834;51.100;6.886;2022-12-20T13:39:28;100729.00;;;13.10
60966;BMP180;46834;51.100;6.886;2022-12-20T13:42:16;100727.00;;;13.10
60966;BMP180;46834;51.100;6.886;2022-12-20T13:44:47;100727.00;;;13.10
60966;BMP180;46834;51.100;6.886;2022-12-20T13:47:44;100735.00;;;13.00
60966;BMP180;46834;51.100;6.886;2022-12-20T13:50:30;100732.00;;;13.00
60966;BMP180;46834;51.100;6.886;2022-12-20T13:53:00;100735.00;;;13.00
60966;BMP180;46834;51.100;6.886;2022-12-20T13:55:38;100727.00;;;13.00
60966;BMP180;46834;51.100;6.886;2022-12-20T13:58:11;100730.00;;;13.00
60966;BMP180;46834;51.100;6.886;2022-12-20T14:00:38;100737.00;;;13.00
60966;BMP180;46834;51.100;6.886;2022-12-20T14:03:12;100735.00;;;13.00
60966;BMP180;46834;51.100;6.886;2022-12-20T14:05:39;100737.00;;;13.00
60966;BMP180;46834;51.100;6.886;2022-12-20T14:08:19;100731.00;;;13.00
60966;BMP180;46834;51.100;6.886;2022-12-20T14:10:45;100738.00;;;13.00
60966;BMP180;46834;51.100;6.886;2022-12-20T14:13:26;100731.00;;;13.00
60966;BMP180;46834;51.100;6.886;2022-12-20T14:15:53;100726.00;;;13.00
60966;BMP180;46834;51.100;6.886;2022-12-20T14:18:25;100727.00;;;13.00
60966;BMP180;46834;51.100;6.886;2022-12-20T14:21:04;100726.00;;;13.00
60966;BMP180;46834;51.100;6.886;2022-12-20T14:23:43;100737.00;;;13.00
60966;BMP180;46834;51.100;6.886;2022-12-20T14:26:16;100737.00;;;13.00
60966;BMP180;46834;51.100;6.886;2022-12-20T14:28:47;100741.00;;;13.00
60966;BMP180;46834;51.100;6.886;2022-12-20T14:36:40;100726.00;;;12.90
60966;BMP180;46834;51.100;6.886;2022-12-20T14:39:32;100711.00;;;12.90
60966;BMP180;46834;51.100;6.886;2022-12-20T14:44:37;100713.00;;;12.90
60966;BMP180;46834;51.100;6.886;2022-12-20T14:47:25;100719.00;;;12.90
60966;BMP180;46834;51.100;6.886;2022-12-20T14:49:57;100718.00;;;12.90
60966;BMP180;46834;51.100;6.886;2022-12-20T14:52:41;100699.00;;;12.90
60966;BMP180;46834;51.100;6.886;2022-12-20T14:55:19;100704.00;;;12.90
60966;BMP180;46834;51.100;6.886;2022-12-20T14:57:50;100705.00;;;12.90
60966;BMP180;46834;51.100;6.886;2022-12-20T15:08:28;100689.00;;;12.80
60966;BMP180;46834;51.100;6.886;2022-12-20T15:13:43;100699.00;;;12.90
60966;BMP180;46834;51.100;6.886;2022-12-20T15:16:18;100702.00;;;12.90
60966;BMP180;46834;51.100;6.886;2022-12-20T15:18:49;100697.00;;;12.90
60966;BMP180;46834;51.100;6.886;2022-12-20T15:21:34;100692.00;;;12.90
60966;BMP180;46834;51.100;6.886;2022-12-20T15:24:04;100697.00;;;12.90
60966;BMP180;46834;51.100;6.886;2022-12-20T15:26:35;100695.00;;;12.90
60966;BMP180;46834;51.100;6.886;2022-12-20T15:29:01;100696.00;;;12.90
60966;BMP180;46834;51.100;6.886;2022-12-20T15:31:28;100689.00;;;12.90
60966;BMP180;46834;51.100;6.886;2022-12-20T15:33:55;100701.00;;;12.90
60966;BMP180;46834;51.100;6.886;2022-12-20T15:36:27;100699.00;;;12.90
60966;BMP180;46834;51.100;6.886;2022-12-20T15:38:55;100694.00;;;12.90
60966;BMP180;46834;51.100;6.886;2022-12-20T15:41:28;100698.00;;;12.80
60966;BMP180;46834;51.100;6.886;2022-12-20T15:43:58;100685.00;;;12.80
60966;BMP180;46834;51.100;6.886;2022-12-20T15:46:25;100695.00;;;12.90
60966;BMP180;46834;51.100;6.886;2022-12-20T15:48:52;100691.00;;;12.90
60966;BMP180;46834;51.100;6.886;2022-12-20T15:51:32;100680.00;;;12.80
60966;BMP180;46834;51.100;6.886;2022-12-20T15:54:01;100681.00;;;12.90
60966;BMP180;46834;51.100;6.886;2022-12-20T15:56:28;100682.00;;;12.90
60966;BMP180;46834;51.100;6.886;2022-12-20T15:58:55;100681.00;;;12.90
60966;BMP180;46834;51.100;6.886;2022-12-20T16:01:28;100671.00;;;12.90
60966;BMP180;46834;51.100;6.886;2022-12-20T16:03:56;100671.00;;;12.90
60966;BMP180;46834;51.100;6.886;2022-12-20T16:06:21;100662.00;;;12.90
60966;BMP180;46834;51.100;6.886;2022-12-20T16:08:47;100675.00;;;12.90
60966;BMP180;46834;51.100;6.886;2022-12-20T16:11:26;100678.00;;;12.90
60966;BMP180;46834;51.100;6.886;2022-12-20T16:13:53;100665.00;;;12.90
60966;BMP180;46834;51.100;6.886;2022-12-20T16:16:32;100655.00;;;12.80